createdAt,value
2019-05-20T00:00:59.215Z,6.90
2019-05-20T00:15:49.733Z,7.60
2019-05-20T00:30:51.700Z,7.30
2019-05-20T00:45:49.674Z,7.10
2019-05-20T01:00:49.668Z,7.97
2019-05-20T01:15:51.461Z,7.37
2019-05-20T01:30:49.910Z,7.12
2019-05-20T01:45:48.845Z,8.20
2019-05-20T02:00:49.914Z,8.40
2019-05-20T02:15:53.067Z,8.00
2019-05-20T02:30:57.376Z,7.08
2019-05-20T02:45:58.450Z,6.97
2019-05-20T03:00:51.147Z,7.10
2019-05-20T03:30:49.533Z,8.40
2019-05-20T03:45:49.361Z,8.98
2019-05-20T04:00:49.864Z,6.83
2019-05-20T04:15:49.718Z,7.17
2019-05-20T04:30:49.710Z,7.80
2019-05-20T04:45:50.591Z,8.90
2019-05-20T05:00:57.493Z,8.70
2019-05-20T05:15:50.146Z,10.90
2019-05-20T05:30:50.398Z,7.62
2019-05-20T05:45:52.972Z,6.25
2019-05-20T06:00:50.407Z,5.42
2019-05-20T06:15:49.279Z,4.65
2019-05-20T06:30:50.054Z,4.80
2019-05-20T06:45:49.144Z,6.12
2019-05-20T07:00:49.136Z,6.08
2019-05-20T07:15:49.605Z,6.83
2019-05-20T07:30:49.633Z,9.20
2019-05-20T07:45:49.840Z,8.05
2019-05-20T08:00:49.394Z,6.62
2019-05-20T08:15:49.773Z,7.12
2019-05-20T08:30:50.194Z,6.33
2019-05-20T08:45:49.714Z,5.70
2019-05-20T09:00:49.630Z,5.60
2019-05-20T09:15:49.929Z,5.30
2019-05-20T09:30:50.058Z,6.20
2019-05-20T09:46:05.785Z,5.60
2019-05-20T10:00:50.399Z,5.00
2019-05-20T10:15:49.226Z,5.50
2019-05-20T10:30:49.298Z,4.80
2019-05-20T10:45:49.053Z,5.40
2019-05-20T11:01:01.888Z,4.47
2019-05-20T11:15:49.577Z,4.90
2019-05-20T11:30:49.450Z,4.75
2019-05-20T11:45:49.391Z,5.00
2019-05-20T12:00:50.749Z,5.25
2019-05-20T12:15:51.660Z,6.35
2019-05-20T12:30:50.115Z,5.70
2019-05-20T12:45:52.859Z,4.53
2019-05-20T13:00:51.215Z,5.67
2019-05-20T13:15:51.555Z,5.15
2019-05-20T13:30:50.384Z,6.58
2019-05-20T13:45:51.841Z,5.97
2019-05-20T14:00:50.355Z,5.65
2019-05-20T14:15:48.648Z,6.12
2019-05-20T14:30:48.608Z,5.42
2019-05-20T14:45:55.089Z,4.50
2019-05-20T15:00:49.089Z,4.95
2019-05-20T15:15:49.488Z,5.58
2019-05-20T15:30:49.352Z,5.15
2019-05-20T15:45:49.383Z,4.30
2019-05-20T16:00:51.289Z,5.70
2019-05-20T16:15:49.643Z,5.65
2019-05-20T16:30:49.660Z,4.80
2019-05-20T16:45:49.562Z,5.40
2019-05-20T17:00:49.499Z,6.72
2019-05-20T17:15:55.829Z,8.40
2019-05-20T17:30:53.837Z,7.45
2019-05-20T17:45:55.843Z,8.90
2019-05-20T18:00:50.243Z,6.92
2019-05-20T18:15:49.260Z,5.70
2019-05-20T18:30:49.056Z,6.15
2019-05-20T18:45:49.073Z,6.40
2019-05-20T19:00:49.994Z,6.60
2019-05-20T19:15:49.409Z,6.62
2019-05-20T19:30:51.408Z,8.18
2019-05-20T19:45:55.261Z,8.40
2019-05-20T20:00:57.480Z,8.00
2019-05-20T20:15:50.039Z,11.68
2019-05-20T20:30:51.181Z,9.75
2019-05-20T20:45:55.670Z,8.65
2019-05-20T21:00:49.572Z,8.45
2019-05-20T21:15:58.580Z,8.73
2019-05-20T21:45:52.046Z,7.78
2019-05-20T22:00:52.972Z,8.70
2019-05-20T22:15:52.343Z,8.93
2019-05-20T22:30:50.668Z,7.85
2019-05-20T22:45:54.069Z,6.55
2019-05-20T23:00:49.996Z,7.25
2019-05-20T23:15:49.454Z,7.87
2019-05-20T23:30:51.843Z,9.58
2019-05-20T23:45:59.244Z,10.63
